Terminal Aerodrome Forecast
Issued by NWS Hastings, NE

Home | Current Version | Previous Version | Text Only | Print | Product List | Glossary On
Versions: 1 2 3 4 5 6 7 8 9 10 11 12 13 14 15 16 17 18 19 20 21 22 23 24 25 26 27 28 29 30
000
FTUS43 KGID 311132
TAFGRI
TAF
KGRI 311132Z 3112/0112 18010KT P6SM -RASN OVC007
      TEMPO 3112/3116 3SM -SN BR OVC004
     FM311600 17011KT 3SM -SN BR OVC006
     FM010000 09008KT 3SM -SN BR OVC006
     FM010300 36010KT 1SM -SN BR OVC003
     FM010800 35021G31KT 1SM -SN BR OVC003=

USA.gov is the U.S. government's official web portal to all federal, state and local government web resources and services.